sensor_id;sensor_type;location;lat;lon;timestamp;P1;durP1;ratioP1;P2;durP2;ratioP2
79338;SDS011;74181;41.704;44.786;2023-11-18T00:00:50;7.05;;;3.13;;
79338;SDS011;74181;41.704;44.786;2023-11-18T00:03:17;8.25;;;3.50;;
79338;SDS011;74181;41.704;44.786;2023-11-18T00:05:43;7.10;;;2.67;;
79338;SDS011;74181;41.704;44.786;2023-11-18T00:08:09;5.10;;;2.30;;
79338;SDS011;74181;41.704;44.786;2023-11-18T00:10:35;5.35;;;2.30;;
79338;SDS011;74181;41.704;44.786;2023-11-18T00:13:01;5.43;;;2.30;;
79338;SDS011;74181;41.704;44.786;2023-11-18T00:15:29;4.93;;;1.90;;
79338;SDS011;74181;41.704;44.786;2023-11-18T00:17:55;4.23;;;2.10;;
79338;SDS011;74181;41.704;44.786;2023-11-18T00:20:23;5.45;;;2.42;;
79338;SDS011;74181;41.704;44.786;2023-11-18T00:22:49;4.93;;;2.20;;
79338;SDS011;74181;41.704;44.786;2023-11-18T00:25:17;5.28;;;2.50;;
79338;SDS011;74181;41.704;44.786;2023-11-18T00:27:44;5.03;;;2.20;;
79338;SDS011;74181;41.704;44.786;2023-11-18T00:30:10;5.57;;;2.27;;
79338;SDS011;74181;41.704;44.786;2023-11-18T00:32:36;4.32;;;2.30;;
79338;SDS011;74181;41.704;44.786;2023-11-18T00:35:04;5.80;;;2.42;;
79338;SDS011;74181;41.704;44.786;2023-11-18T00:37:31;6.65;;;2.00;;
79338;SDS011;74181;41.704;44.786;2023-11-18T00:39:57;4.18;;;1.80;;
79338;SDS011;74181;41.704;44.786;2023-11-18T00:42:24;3.30;;;1.60;;
79338;SDS011;74181;41.704;44.786;2023-11-18T00:44:50;4.95;;;1.60;;
79338;SDS011;74181;41.704;44.786;2023-11-18T00:47:16;4.20;;;1.77;;
79338;SDS011;74181;41.704;44.786;2023-11-18T00:49:42;3.63;;;1.50;;
79338;SDS011;74181;41.704;44.786;2023-11-18T00:52:08;4.18;;;1.80;;
79338;SDS011;74181;41.704;44.786;2023-11-18T00:54:34;3.80;;;1.50;;
79338;SDS011;74181;41.704;44.786;2023-11-18T00:57:01;3.35;;;1.50;;
79338;SDS011;74181;41.704;44.786;2023-11-18T00:59:28;4.03;;;1.67;;
79338;SDS011;74181;41.704;44.786;2023-11-18T01:01:55;4.32;;;1.55;;
79338;SDS011;74181;41.704;44.786;2023-11-18T01:04:21;3.83;;;1.80;;
79338;SDS011;74181;41.704;44.786;2023-11-18T01:06:47;3.93;;;1.30;;
79338;SDS011;74181;41.704;44.786;2023-11-18T01:09:14;3.50;;;1.55;;
79338;SDS011;74181;41.704;44.786;2023-11-18T01:11:41;3.58;;;1.45;;
79338;SDS011;74181;41.704;44.786;2023-11-18T01:14:07;3.45;;;1.30;;
79338;SDS011;74181;41.704;44.786;2023-11-18T01:16:33;3.63;;;1.38;;
79338;SDS011;74181;41.704;44.786;2023-11-18T01:19:00;4.43;;;1.37;;
79338;SDS011;74181;41.704;44.786;2023-11-18T01:21:26;2.78;;;1.20;;
79338;SDS011;74181;41.704;44.786;2023-11-18T01:23:53;2.80;;;1.20;;
79338;SDS011;74181;41.704;44.786;2023-11-18T01:26:19;3.33;;;1.38;;
79338;SDS011;74181;41.704;44.786;2023-11-18T01:28:47;4.75;;;1.45;;
79338;SDS011;74181;41.704;44.786;2023-11-18T01:31:13;3.27;;;1.50;;
79338;SDS011;74181;41.704;44.786;2023-11-18T01:33:39;4.35;;;1.50;;
79338;SDS011;74181;41.704;44.786;2023-11-18T01:36:06;3.08;;;1.30;;
79338;SDS011;74181;41.704;44.786;2023-11-18T01:38:37;3.40;;;1.35;;
79338;SDS011;74181;41.704;44.786;2023-11-18T01:41:04;3.80;;;1.60;;
79338;SDS011;74181;41.704;44.786;2023-11-18T01:43:31;4.30;;;1.40;;
79338;SDS011;74181;41.704;44.786;2023-11-18T01:45:58;3.10;;;1.17;;
79338;SDS011;74181;41.704;44.786;2023-11-18T01:48:27;3.55;;;1.30;;
79338;SDS011;74181;41.704;44.786;2023-11-18T01:50:56;3.42;;;1.30;;
79338;SDS011;74181;41.704;44.786;2023-11-18T01:53:23;3.63;;;1.35;;
79338;SDS011;74181;41.704;44.786;2023-11-18T01:55:49;3.13;;;1.30;;
79338;SDS011;74181;41.704;44.786;2023-11-18T01:58:16;3.15;;;1.35;;
79338;SDS011;74181;41.704;44.786;2023-11-18T02:00:45;2.97;;;1.30;;
79338;SDS011;74181;41.704;44.786;2023-11-18T02:03:12;3.25;;;1.20;;
79338;SDS011;74181;41.704;44.786;2023-11-18T02:05:38;3.42;;;1.48;;
79338;SDS011;74181;41.704;44.786;2023-11-18T02:08:05;3.53;;;1.30;;
79338;SDS011;74181;41.704;44.786;2023-11-18T02:10:36;3.90;;;1.40;;
79338;SDS011;74181;41.704;44.786;2023-11-18T02:13:24;3.38;;;1.00;;
79338;SDS011;74181;41.704;44.786;2023-11-18T02:15:55;3.38;;;1.00;;
79338;SDS011;74181;41.704;44.786;2023-11-18T02:18:26;3.03;;;1.00;;
79338;SDS011;74181;41.704;44.786;2023-11-18T02:21:14;3.17;;;1.10;;
79338;SDS011;74181;41.704;44.786;2023-11-18T02:23:41;2.53;;;1.00;;
79338;SDS011;74181;41.704;44.786;2023-11-18T02:26:09;2.90;;;1.10;;
79338;SDS011;74181;41.704;44.786;2023-11-18T02:28:36;3.17;;;1.23;;
79338;SDS011;74181;41.704;44.786;2023-11-18T02:31:13;2.67;;;1.05;;
79338;SDS011;74181;41.704;44.786;2023-11-18T02:33:44;2.67;;;1.10;;
79338;SDS011;74181;41.704;44.786;2023-11-18T02:36:31;3.35;;;1.23;;
79338;SDS011;74181;41.704;44.786;2023-11-18T02:39:04;3.45;;;1.20;;
79338;SDS011;74181;41.704;44.786;2023-11-18T02:41:36;3.10;;;1.00;;
79338;SDS011;74181;41.704;44.786;2023-11-18T02:44:04;3.33;;;1.02;;
79338;SDS011;74181;41.704;44.786;2023-11-18T02:46:36;2.73;;;0.90;;
79338;SDS011;74181;41.704;44.786;2023-11-18T02:49:03;3.22;;;1.05;;
79338;SDS011;74181;41.704;44.786;2023-11-18T02:51:29;4.43;;;1.08;;
79338;SDS011;74181;41.704;44.786;2023-11-18T02:53:57;2.80;;;1.00;;
79338;SDS011;74181;41.704;44.786;2023-11-18T02:56:24;2.60;;;1.00;;
79338;SDS011;74181;41.704;44.786;2023-11-18T02:58:50;3.50;;;1.30;;
79338;SDS011;74181;41.704;44.786;2023-11-18T03:01:17;3.50;;;1.00;;
79338;SDS011;74181;41.704;44.786;2023-11-18T03:03:45;3.83;;;1.27;;
79338;SDS011;74181;41.704;44.786;2023-11-18T03:06:11;3.67;;;1.40;;
79338;SDS011;74181;41.704;44.786;2023-11-18T03:08:37;4.30;;;1.50;;
79338;SDS011;74181;41.704;44.786;2023-11-18T03:11:03;4.27;;;1.57;;
79338;SDS011;74181;41.704;44.786;2023-11-18T03:13:30;5.07;;;1.77;;
79338;SDS011;74181;41.704;44.786;2023-11-18T03:15:57;5.28;;;2.03;;
79338;SDS011;74181;41.704;44.786;2023-11-18T03:18:24;5.32;;;2.00;;
79338;SDS011;74181;41.704;44.786;2023-11-18T03:20:51;7.57;;;1.92;;
79338;SDS011;74181;41.704;44.786;2023-11-18T03:23:17;4.17;;;1.83;;
79338;SDS011;74181;41.704;44.786;2023-11-18T03:25:44;5.13;;;1.80;;
79338;SDS011;74181;41.704;44.786;2023-11-18T03:28:10;4.78;;;1.85;;
79338;SDS011;74181;41.704;44.786;2023-11-18T03:30:36;4.55;;;1.80;;
79338;SDS011;74181;41.704;44.786;2023-11-18T03:33:03;6.10;;;2.20;;
79338;SDS011;74181;41.704;44.786;2023-11-18T03:35:30;4.43;;;1.80;;
79338;SDS011;74181;41.704;44.786;2023-11-18T03:37:56;3.80;;;1.70;;
79338;SDS011;74181;41.704;44.786;2023-11-18T03:40:22;5.55;;;2.10;;
79338;SDS011;74181;41.704;44.786;2023-11-18T03:42:48;4.45;;;1.90;;
79338;SDS011;74181;41.704;44.786;2023-11-18T03:45:15;5.68;;;1.92;;
79338;SDS011;74181;41.704;44.786;2023-11-18T03:47:43;5.27;;;2.10;;
79338;SDS011;74181;41.704;44.786;2023-11-18T03:50:09;6.57;;;1.92;;
79338;SDS011;74181;41.704;44.786;2023-11-18T03:52:36;4.72;;;2.60;;
79338;SDS011;74181;41.704;44.786;2023-11-18T03:55:03;6.13;;;2.20;;
79338;SDS011;74181;41.704;44.786;2023-11-18T03:57:30;6.63;;;2.30;;
79338;SDS011;74181;41.704;44.786;2023-11-18T03:59:56;4.77;;;2.10;;
79338;SDS011;74181;41.704;44.786;2023-11-18T04:02:22;6.05;;;2.22;;
79338;SDS011;74181;41.704;44.786;2023-11-18T04:04:49;7.45;;;2.58;;
79338;SDS011;74181;41.704;44.786;2023-11-18T04:07:15;7.43;;;2.58;;
79338;SDS011;74181;41.704;44.786;2023-11-18T04:09:41;5.95;;;2.38;;
79338;SDS011;74181;41.704;44.786;2023-11-18T04:12:09;5.73;;;2.40;;
79338;SDS011;74181;41.704;44.786;2023-11-18T04:14:36;7.03;;;2.63;;
79338;SDS011;74181;41.704;44.786;2023-11-18T04:17:02;6.18;;;2.38;;
79338;SDS011;74181;41.704;44.786;2023-11-18T04:19:29;7.70;;;2.63;;
79338;SDS011;74181;41.704;44.786;2023-11-18T04:21:55;7.22;;;3.00;;
79338;SDS011;74181;41.704;44.786;2023-11-18T04:24:21;9.60;;;3.33;;
79338;SDS011;74181;41.704;44.786;2023-11-18T04:26:48;7.65;;;3.00;;
79338;SDS011;74181;41.704;44.786;2023-11-18T04:29:15;7.53;;;3.30;;
79338;SDS011;74181;41.704;44.786;2023-11-18T04:31:41;7.43;;;3.28;;
79338;SDS011;74181;41.704;44.786;2023-11-18T04:34:07;7.72;;;3.00;;
79338;SDS011;74181;41.704;44.786;2023-11-18T04:36:34;8.00;;;3.43;;
79338;SDS011;74181;41.704;44.786;2023-11-18T04:39:00;7.07;;;3.08;;
79338;SDS011;74181;41.704;44.786;2023-11-18T04:41:26;7.50;;;3.00;;
79338;SDS011;74181;41.704;44.786;2023-11-18T04:43:52;6.05;;;3.20;;
79338;SDS011;74181;41.704;44.786;2023-11-18T04:46:19;8.07;;;2.88;;
79338;SDS011;74181;41.704;44.786;2023-11-18T04:48:45;11.63;;;3.50;;
79338;SDS011;74181;41.704;44.786;2023-11-18T04:51:11;8.13;;;3.80;;
79338;SDS011;74181;41.704;44.786;2023-11-18T04:53:37;8.63;;;3.50;;
79338;SDS011;74181;41.704;44.786;2023-11-18T04:56:05;7.50;;;3.38;;
79338;SDS011;74181;41.704;44.786;2023-11-18T04:58:39;9.73;;;3.28;;
79338;SDS011;74181;41.704;44.786;2023-11-18T05:01:05;11.10;;;3.53;;
79338;SDS011;74181;41.704;44.786;2023-11-18T05:03:31;9.95;;;3.30;;
79338;SDS011;74181;41.704;44.786;2023-11-18T05:05:58;8.48;;;3.58;;
79338;SDS011;74181;41.704;44.786;2023-11-18T05:08:24;8.15;;;3.10;;
79338;SDS011;74181;41.704;44.786;2023-11-18T05:10:51;7.03;;;3.17;;
79338;SDS011;74181;41.704;44.786;2023-11-18T05:13:17;5.97;;;2.70;;
79338;SDS011;74181;41.704;44.786;2023-11-18T05:15:44;4.10;;;2.10;;
79338;SDS011;74181;41.704;44.786;2023-11-18T05:18:11;4.25;;;1.65;;
79338;SDS011;74181;41.704;44.786;2023-11-18T05:20:41;3.50;;;1.63;;
79338;SDS011;74181;41.704;44.786;2023-11-18T05:23:10;6.30;;;2.13;;
79338;SDS011;74181;41.704;44.786;2023-11-18T05:25:39;7.27;;;2.23;;
79338;SDS011;74181;41.704;44.786;2023-11-18T05:28:05;4.63;;;1.65;;
79338;SDS011;74181;41.704;44.786;2023-11-18T05:30:36;4.93;;;1.90;;
79338;SDS011;74181;41.704;44.786;2023-11-18T05:33:03;6.28;;;2.30;;
79338;SDS011;74181;41.704;44.786;2023-11-18T05:35:34;4.55;;;1.77;;
79338;SDS011;74181;41.704;44.786;2023-11-18T05:38:01;4.27;;;2.20;;
79338;SDS011;74181;41.704;44.786;2023-11-18T05:40:31;9.90;;;4.15;;
79338;SDS011;74181;41.704;44.786;2023-11-18T05:42:58;9.15;;;4.38;;
79338;SDS011;74181;41.704;44.786;2023-11-18T05:45:24;11.35;;;4.45;;
79338;SDS011;74181;41.704;44.786;2023-11-18T05:47:56;10.63;;;4.68;;
79338;SDS011;74181;41.704;44.786;2023-11-18T05:50:23;12.23;;;4.90;;
79338;SDS011;74181;41.704;44.786;2023-11-18T05:52:52;12.38;;;5.40;;
79338;SDS011;74181;41.704;44.786;2023-11-18T05:55:19;11.23;;;5.60;;
79338;SDS011;74181;41.704;44.786;2023-11-18T05:57:46;10.45;;;5.10;;
79338;SDS011;74181;41.704;44.786;2023-11-18T06:00:15;13.02;;;5.20;;
79338;SDS011;74181;41.704;44.786;2023-11-18T06:02:44;11.57;;;5.00;;
79338;SDS011;74181;41.704;44.786;2023-11-18T06:05:11;12.15;;;5.53;;
79338;SDS011;74181;41.704;44.786;2023-11-18T06:07:38;18.67;;;5.53;;
79338;SDS011;74181;41.704;44.786;2023-11-18T06:10:09;11.85;;;4.95;;
79338;SDS011;74181;41.704;44.786;2023-11-18T06:12:35;10.02;;;4.80;;
79338;SDS011;74181;41.704;44.786;2023-11-18T06:15:05;10.10;;;4.80;;
79338;SDS011;74181;41.704;44.786;2023-11-18T06:17:34;13.05;;;5.32;;
79338;SDS011;74181;41.704;44.786;2023-11-18T06:20:00;11.88;;;4.80;;
79338;SDS011;74181;41.704;44.786;2023-11-18T06:22:28;13.13;;;5.70;;
79338;SDS011;74181;41.704;44.786;2023-11-18T06:24:55;11.13;;;5.03;;
79338;SDS011;74181;41.704;44.786;2023-11-18T06:27:21;13.67;;;5.20;;
79338;SDS011;74181;41.704;44.786;2023-11-18T06:29:50;11.50;;;5.25;;
79338;SDS011;74181;41.704;44.786;2023-11-18T06:32:17;10.55;;;4.43;;
79338;SDS011;74181;41.704;44.786;2023-11-18T06:34:43;7.80;;;3.90;;
79338;SDS011;74181;41.704;44.786;2023-11-18T06:37:09;8.73;;;4.10;;
79338;SDS011;74181;41.704;44.786;2023-11-18T06:39:35;10.27;;;4.80;;
79338;SDS011;74181;41.704;44.786;2023-11-18T06:42:05;9.40;;;4.35;;
79338;SDS011;74181;41.704;44.786;2023-11-18T06:44:37;10.27;;;3.00;;
79338;SDS011;74181;41.704;44.786;2023-11-18T06:47:03;8.25;;;2.80;;
79338;SDS011;74181;41.704;44.786;2023-11-18T06:49:32;4.43;;;2.45;;
79338;SDS011;74181;41.704;44.786;2023-11-18T06:52:00;7.13;;;2.70;;
79338;SDS011;74181;41.704;44.786;2023-11-18T06:54:29;5.95;;;2.90;;
79338;SDS011;74181;41.704;44.786;2023-11-18T06:56:58;8.25;;;3.22;;
79338;SDS011;74181;41.704;44.786;2023-11-18T06:59:24;5.15;;;2.70;;
79338;SDS011;74181;41.704;44.786;2023-11-18T07:01:50;6.07;;;2.15;;
79338;SDS011;74181;41.704;44.786;2023-11-18T07:04:16;5.57;;;2.20;;
79338;SDS011;74181;41.704;44.786;2023-11-18T07:06:43;5.13;;;2.22;;
79338;SDS011;74181;41.704;44.786;2023-11-18T07:09:09;6.65;;;2.42;;
79338;SDS011;74181;41.704;44.786;2023-11-18T07:11:46;5.25;;;2.10;;
79338;SDS011;74181;41.704;44.786;2023-11-18T07:14:13;20.73;;;3.30;;
79338;SDS011;74181;41.704;44.786;2023-11-18T07:16:41;7.30;;;2.43;;
79338;SDS011;74181;41.704;44.786;2023-11-18T07:19:07;3.72;;;1.67;;
79338;SDS011;74181;41.704;44.786;2023-11-18T07:21:35;3.65;;;1.15;;
79338;SDS011;74181;41.704;44.786;2023-11-18T07:24:01;4.97;;;1.92;;
79338;SDS011;74181;41.704;44.786;2023-11-18T07:26:30;5.07;;;2.00;;
79338;SDS011;74181;41.704;44.786;2023-11-18T07:28:56;4.53;;;1.90;;
79338;SDS011;74181;41.704;44.786;2023-11-18T07:31:22;4.78;;;1.90;;
79338;SDS011;74181;41.704;44.786;2023-11-18T07:33:50;5.80;;;2.40;;
79338;SDS011;74181;41.704;44.786;2023-11-18T07:36:16;5.43;;;1.90;;
79338;SDS011;74181;41.704;44.786;2023-11-18T07:38:45;4.20;;;1.98;;
79338;SDS011;74181;41.704;44.786;2023-11-18T07:41:12;8.10;;;1.97;;
79338;SDS011;74181;41.704;44.786;2023-11-18T07:43:49;5.57;;;1.92;;
79338;SDS011;74181;41.704;44.786;2023-11-18T07:46:16;4.15;;;1.77;;
79338;SDS011;74181;41.704;44.786;2023-11-18T07:48:43;4.80;;;1.90;;
79338;SDS011;74181;41.704;44.786;2023-11-18T07:51:09;5.53;;;1.60;;
79338;SDS011;74181;41.704;44.786;2023-11-18T07:53:37;7.60;;;1.80;;
79338;SDS011;74181;41.704;44.786;2023-11-18T07:56:04;5.70;;;1.80;;
79338;SDS011;74181;41.704;44.786;2023-11-18T07:58:32;5.70;;;1.80;;
79338;SDS011;74181;41.704;44.786;2023-11-18T08:00:58;5.60;;;1.80;;
79338;SDS011;74181;41.704;44.786;2023-11-18T08:03:25;4.60;;;1.90;;
79338;SDS011;74181;41.704;44.786;2023-11-18T08:05:53;4.33;;;1.73;;
79338;SDS011;74181;41.704;44.786;2023-11-18T08:08:19;5.55;;;1.67;;
79338;SDS011;74181;41.704;44.786;2023-11-18T08:10:46;4.45;;;1.77;;
79338;SDS011;74181;41.704;44.786;2023-11-18T08:13:14;11.90;;;9.43;;
79338;SDS011;74181;41.704;44.786;2023-11-18T08:15:40;3.53;;;1.70;;
79338;SDS011;74181;41.704;44.786;2023-11-18T08:18:07;3.63;;;1.63;;
79338;SDS011;74181;41.704;44.786;2023-11-18T08:20:35;4.25;;;1.50;;
79338;SDS011;74181;41.704;44.786;2023-11-18T08:23:02;4.35;;;1.80;;
79338;SDS011;74181;41.704;44.786;2023-11-18T08:25:30;5.10;;;2.38;;
79338;SDS011;74181;41.704;44.786;2023-11-18T08:27:59;3.72;;;1.88;;
79338;SDS011;74181;41.704;44.786;2023-11-18T08:30:33;4.23;;;1.93;;
79338;SDS011;74181;41.704;44.786;2023-11-18T08:32:59;6.22;;;2.20;;
79338;SDS011;74181;41.704;44.786;2023-11-18T08:35:25;5.25;;;2.03;;
79338;SDS011;74181;41.704;44.786;2023-11-18T08:37:52;4.10;;;1.50;;
79338;SDS011;74181;41.704;44.786;2023-11-18T08:40:18;4.32;;;1.90;;
79338;SDS011;74181;41.704;44.786;2023-11-18T08:42:51;4.67;;;2.00;;
79338;SDS011;74181;41.704;44.786;2023-11-18T08:45:20;3.63;;;1.70;;
79338;SDS011;74181;41.704;44.786;2023-11-18T08:47:47;4.57;;;1.80;;
79338;SDS011;74181;41.704;44.786;2023-11-18T08:50:17;4.85;;;1.80;;
79338;SDS011;74181;41.704;44.786;2023-11-18T08:52:43;4.28;;;1.60;;
79338;SDS011;74181;41.704;44.786;2023-11-18T08:55:13;5.73;;;2.30;;
79338;SDS011;74181;41.704;44.786;2023-11-18T08:57:47;4.00;;;1.85;;
79338;SDS011;74181;41.704;44.786;2023-11-18T09:00:22;4.50;;;1.92;;
79338;SDS011;74181;41.704;44.786;2023-11-18T09:03:07;3.50;;;1.75;;
79338;SDS011;74181;41.704;44.786;2023-11-18T09:05:33;5.50;;;2.60;;
79338;SDS011;74181;41.704;44.786;2023-11-18T09:08:02;3.80;;;1.80;;
79338;SDS011;74181;41.704;44.786;2023-11-18T09:10:31;4.60;;;2.20;;
79338;SDS011;74181;41.704;44.786;2023-11-18T09:12:59;5.72;;;2.13;;
79338;SDS011;74181;41.704;44.786;2023-11-18T09:15:25;4.40;;;2.10;;
79338;SDS011;74181;41.704;44.786;2023-11-18T09:17:51;8.20;;;2.97;;
79338;SDS011;74181;41.704;44.786;2023-11-18T09:20:18;6.07;;;2.03;;
79338;SDS011;74181;41.704;44.786;2023-11-18T09:22:48;4.60;;;1.92;;
79338;SDS011;74181;41.704;44.786;2023-11-18T09:25:15;5.43;;;2.40;;
79338;SDS011;74181;41.704;44.786;2023-11-18T09:27:41;4.72;;;2.30;;
79338;SDS011;74181;41.704;44.786;2023-11-18T09:30:08;9.77;;;4.63;;
79338;SDS011;74181;41.704;44.786;2023-11-18T09:32:40;6.80;;;2.80;;
79338;SDS011;74181;41.704;44.786;2023-11-18T09:35:08;6.47;;;2.60;;
79338;SDS011;74181;41.704;44.786;2023-11-18T09:37:35;5.68;;;2.67;;
79338;SDS011;74181;41.704;44.786;2023-11-18T09:40:07;5.32;;;2.67;;
79338;SDS011;74181;41.704;44.786;2023-11-18T09:42:40;7.32;;;2.90;;
79338;SDS011;74181;41.704;44.786;2023-11-18T09:45:09;7.53;;;2.87;;
79338;SDS011;74181;41.704;44.786;2023-11-18T09:47:45;7.07;;;3.00;;
79338;SDS011;74181;41.704;44.786;2023-11-18T09:50:16;7.85;;;3.30;;
79338;SDS011;74181;41.704;44.786;2023-11-18T09:52:47;9.63;;;4.07;;
79338;SDS011;74181;41.704;44.786;2023-11-18T09:55:41;7.65;;;3.15;;
79338;SDS011;74181;41.704;44.786;2023-11-18T09:58:25;4.97;;;2.47;;
79338;SDS011;74181;41.704;44.786;2023-11-18T10:01:01;6.72;;;2.60;;
79338;SDS011;74181;41.704;44.786;2023-11-18T10:03:29;6.60;;;2.60;;
79338;SDS011;74181;41.704;44.786;2023-11-18T10:05:55;6.32;;;2.58;;
79338;SDS011;74181;41.704;44.786;2023-11-18T10:08:21;5.05;;;2.50;;
79338;SDS011;74181;41.704;44.786;2023-11-18T10:10:51;5.07;;;2.50;;
79338;SDS011;74181;41.704;44.786;2023-11-18T10:13:31;6.05;;;2.75;;
79338;SDS011;74181;41.704;44.786;2023-11-18T10:16:01;7.50;;;2.30;;
79338;SDS011;74181;41.704;44.786;2023-11-18T10:18:27;5.03;;;2.50;;
79338;SDS011;74181;41.704;44.786;2023-11-18T10:20:54;6.40;;;3.00;;
79338;SDS011;74181;41.704;44.786;2023-11-18T10:23:20;5.37;;;2.50;;
79338;SDS011;74181;41.704;44.786;2023-11-18T10:25:48;5.43;;;2.42;;
79338;SDS011;74181;41.704;44.786;2023-11-18T10:28:21;6.57;;;2.75;;
79338;SDS011;74181;41.704;44.786;2023-11-18T10:30:56;4.93;;;2.30;;
79338;SDS011;74181;41.704;44.786;2023-11-18T10:33:26;8.38;;;3.10;;
79338;SDS011;74181;41.704;44.786;2023-11-18T10:35:56;7.33;;;2.80;;
79338;SDS011;74181;41.704;44.786;2023-11-18T10:38:23;6.47;;;2.42;;
79338;SDS011;74181;41.704;44.786;2023-11-18T10:40:56;4.82;;;2.38;;
79338;SDS011;74181;41.704;44.786;2023-11-18T10:43:23;5.38;;;2.33;;
79338;SDS011;74181;41.704;44.786;2023-11-18T10:45:51;4.35;;;2.20;;
79338;SDS011;74181;41.704;44.786;2023-11-18T10:48:18;5.77;;;2.40;;
79338;SDS011;74181;41.704;44.786;2023-11-18T10:50:47;6.22;;;2.38;;
79338;SDS011;74181;41.704;44.786;2023-11-18T10:53:16;5.65;;;2.17;;
79338;SDS011;74181;41.704;44.786;2023-11-18T10:55:44;5.05;;;1.90;;
79338;SDS011;74181;41.704;44.786;2023-11-18T10:58:12;5.82;;;2.58;;
79338;SDS011;74181;41.704;44.786;2023-11-18T11:00:47;5.83;;;2.23;;
79338;SDS011;74181;41.704;44.786;2023-11-18T11:03:17;5.45;;;2.53;;
79338;SDS011;74181;41.704;44.786;2023-11-18T11:05:44;7.05;;;2.70;;
79338;SDS011;74181;41.704;44.786;2023-11-18T11:08:11;7.78;;;2.90;;
79338;SDS011;74181;41.704;44.786;2023-11-18T11:10:43;6.82;;;3.05;;
79338;SDS011;74181;41.704;44.786;2023-11-18T11:13:09;7.03;;;2.97;;
79338;SDS011;74181;41.704;44.786;2023-11-18T11:15:43;6.07;;;3.05;;
79338;SDS011;74181;41.704;44.786;2023-11-18T11:18:12;4.15;;;1.80;;
79338;SDS011;74181;41.704;44.786;2023-11-18T11:20:42;6.50;;;2.80;;
79338;SDS011;74181;41.704;44.786;2023-11-18T11:23:18;8.48;;;3.03;;
79338;SDS011;74181;41.704;44.786;2023-11-18T11:25:59;6.80;;;3.03;;
79338;SDS011;74181;41.704;44.786;2023-11-18T11:28:34;6.68;;;2.92;;
79338;SDS011;74181;41.704;44.786;2023-11-18T11:31:03;8.85;;;3.20;;
79338;SDS011;74181;41.704;44.786;2023-11-18T11:33:39;5.18;;;2.70;;
79338;SDS011;74181;41.704;44.786;2023-11-18T11:36:14;7.78;;;3.17;;
79338;SDS011;74181;41.704;44.786;2023-11-18T11:38:43;8.10;;;3.90;;
79338;SDS011;74181;41.704;44.786;2023-11-18T11:41:12;10.13;;;3.42;;
79338;SDS011;74181;41.704;44.786;2023-11-18T11:43:53;8.23;;;3.85;;
79338;SDS011;74181;41.704;44.786;2023-11-18T11:46:26;8.10;;;3.33;;
79338;SDS011;74181;41.704;44.786;2023-11-18T11:48:59;7.72;;;3.13;;
79338;SDS011;74181;41.704;44.786;2023-11-18T11:54:09;8.63;;;3.60;;
79338;SDS011;74181;41.704;44.786;2023-11-18T11:56:46;10.13;;;3.50;;
79338;SDS011;74181;41.704;44.786;2023-11-18T12:02:15;8.45;;;4.05;;
79338;SDS011;74181;41.704;44.786;2023-11-18T12:04:49;9.23;;;4.43;;
79338;SDS011;74181;41.704;44.786;2023-11-18T12:07:20;15.25;;;6.30;;
79338;SDS011;74181;41.704;44.786;2023-11-18T12:09:49;10.38;;;4.68;;
79338;SDS011;74181;41.704;44.786;2023-11-18T12:12:22;7.28;;;3.63;;
79338;SDS011;74181;41.704;44.786;2023-11-18T12:14:53;10.00;;;4.22;;
79338;SDS011;74181;41.704;44.786;2023-11-18T12:17:23;9.27;;;4.80;;
79338;SDS011;74181;41.704;44.786;2023-11-18T12:19:54;12.23;;;5.28;;
79338;SDS011;74181;41.704;44.786;2023-11-18T12:23:03;13.55;;;5.00;;
79338;SDS011;74181;41.704;44.786;2023-11-18T12:25:41;15.60;;;7.50;;
79338;SDS011;74181;41.704;44.786;2023-11-18T12:28:08;10.45;;;4.40;;
79338;SDS011;74181;41.704;44.786;2023-11-18T12:33:03;33.63;;;14.13;;
79338;SDS011;74181;41.704;44.786;2023-11-18T12:36:03;176.85;;;63.42;;
79338;SDS011;74181;41.704;44.786;2023-11-18T12:41:35;93.72;;;33.63;;
79338;SDS011;74181;41.704;44.786;2023-11-18T12:46:51;32.30;;;13.70;;
79338;SDS011;74181;41.704;44.786;2023-11-18T12:49:19;17.05;;;7.70;;
79338;SDS011;74181;41.704;44.786;2023-11-18T12:51:54;13.55;;;5.55;;
79338;SDS011;74181;41.704;44.786;2023-11-18T12:54:26;13.82;;;6.47;;
79338;SDS011;74181;41.704;44.786;2023-11-18T12:56:55;13.27;;;6.00;;
79338;SDS011;74181;41.704;44.786;2023-11-18T12:59:21;16.48;;;6.63;;
79338;SDS011;74181;41.704;44.786;2023-11-18T13:01:51;10.77;;;4.90;;
79338;SDS011;74181;41.704;44.786;2023-11-18T13:04:22;11.18;;;4.95;;
79338;SDS011;74181;41.704;44.786;2023-11-18T13:06:53;10.70;;;4.88;;
79338;SDS011;74181;41.704;44.786;2023-11-18T13:09:21;11.07;;;4.60;;
79338;SDS011;74181;41.704;44.786;2023-11-18T13:11:58;11.60;;;4.78;;
79338;SDS011;74181;41.704;44.786;2023-11-18T13:14:30;13.18;;;5.50;;
79338;SDS011;74181;41.704;44.786;2023-11-18T13:17:08;12.35;;;5.78;;
79338;SDS011;74181;41.704;44.786;2023-11-18T13:19:37;10.57;;;5.45;;
79338;SDS011;74181;41.704;44.786;2023-11-18T13:22:10;12.83;;;5.67;;
79338;SDS011;74181;41.704;44.786;2023-11-18T13:24:38;13.68;;;6.38;;
79338;SDS011;74181;41.704;44.786;2023-11-18T13:27:06;12.65;;;6.55;;
79338;SDS011;74181;41.704;44.786;2023-11-18T13:29:38;13.80;;;7.13;;
79338;SDS011;74181;41.704;44.786;2023-11-18T13:32:05;18.15;;;7.88;;
79338;SDS011;74181;41.704;44.786;2023-11-18T13:34:35;16.10;;;7.03;;
79338;SDS011;74181;41.704;44.786;2023-11-18T13:37:06;13.60;;;6.50;;
79338;SDS011;74181;41.704;44.786;2023-11-18T13:39:33;15.30;;;7.50;;
79338;SDS011;74181;41.704;44.786;2023-11-18T13:42:17;18.95;;;8.18;;
79338;SDS011;74181;41.704;44.786;2023-11-18T13:44:49;17.45;;;8.57;;
79338;SDS011;74181;41.704;44.786;2023-11-18T13:47:22;20.97;;;9.67;;
79338;SDS011;74181;41.704;44.786;2023-11-18T13:49:53;19.90;;;9.13;;
79338;SDS011;74181;41.704;44.786;2023-11-18T13:52:19;22.15;;;9.35;;
79338;SDS011;74181;41.704;44.786;2023-11-18T13:54:47;24.85;;;10.65;;
79338;SDS011;74181;41.704;44.786;2023-11-18T13:57:21;23.15;;;11.15;;
79338;SDS011;74181;41.704;44.786;2023-11-18T13:59:50;23.20;;;10.63;;
79338;SDS011;74181;41.704;44.786;2023-11-18T14:02:17;24.50;;;11.43;;
79338;SDS011;74181;41.704;44.786;2023-11-18T14:04:43;23.50;;;11.20;;
79338;SDS011;74181;41.704;44.786;2023-11-18T14:07:13;25.73;;;12.13;;
79338;SDS011;74181;41.704;44.786;2023-11-18T14:09:41;24.67;;;11.13;;
79338;SDS011;74181;41.704;44.786;2023-11-18T14:12:12;27.90;;;11.60;;
79338;SDS011;74181;41.704;44.786;2023-11-18T14:14:39;26.58;;;12.32;;
79338;SDS011;74181;41.704;44.786;2023-11-18T14:17:05;26.05;;;11.98;;
79338;SDS011;74181;41.704;44.786;2023-11-18T14:19:32;26.75;;;11.75;;
79338;SDS011;74181;41.704;44.786;2023-11-18T14:22:02;23.67;;;11.68;;
79338;SDS011;74181;41.704;44.786;2023-11-18T14:24:35;26.13;;;11.63;;
79338;SDS011;74181;41.704;44.786;2023-11-18T14:27:01;20.77;;;10.43;;
79338;SDS011;74181;41.704;44.786;2023-11-18T14:29:27;24.00;;;10.60;;
79338;SDS011;74181;41.704;44.786;2023-11-18T14:31:53;21.00;;;10.30;;
79338;SDS011;74181;41.704;44.786;2023-11-18T14:34:20;22.05;;;10.73;;
79338;SDS011;74181;41.704;44.786;2023-11-18T14:36:46;20.37;;;9.60;;
79338;SDS011;74181;41.704;44.786;2023-11-18T14:39:12;20.10;;;10.25;;
79338;SDS011;74181;41.704;44.786;2023-11-18T14:41:44;21.42;;;10.55;;
79338;SDS011;74181;41.704;44.786;2023-11-18T14:44:11;24.00;;;11.18;;
79338;SDS011;74181;41.704;44.786;2023-11-18T14:46:37;31.02;;;14.02;;
79338;SDS011;74181;41.704;44.786;2023-11-18T14:49:06;25.90;;;13.00;;
79338;SDS011;74181;41.704;44.786;2023-11-18T14:51:33;33.97;;;16.42;;
79338;SDS011;74181;41.704;44.786;2023-11-18T14:53:59;36.65;;;16.35;;